Terminal Aerodrome Forecast
Issued by NWS Twin Cities, MN

Home | Current Version | Previous Version | Text Only | Print | Product List | Glossary On
Versions: 1 2 3 4 5 6 7 8 9 10 11 12 13 14 15 16 17 18 19
000
FTUS43 KMPX 301700 CCA
TAFEAU
TAF COR
KEAU 301742Z 3018/0118 11009KT P6SM SCT020 SCT250
     FM302200 12007KT P6SM SCT030 BKN250
     FM010600 13008KT P6SM VCSH SCT015 OVC050
     FM010900 13010KT 6SM -SHRA BR BKN010 OVC035
     FM011200 14011KT 6SM -RA BR BKN007 OVC015=

USA.gov is the U.S. government's official web portal to all federal, state and local government web resources and services.